sensor_id;sensor_type;location;lat;lon;timestamp;temperature;humidity
69009;SHT31;56065;52.472;13.380;2024-01-15T00:02:07;3.57;89.60
69009;SHT31;56065;52.472;13.380;2024-01-15T00:04:40;3.50;90.00
69009;SHT31;56065;52.472;13.380;2024-01-15T00:07:06;3.47;90.60
69009;SHT31;56065;52.472;13.380;2024-01-15T00:09:31;3.43;90.43
69009;SHT31;56065;52.472;13.380;2024-01-15T00:11:57;3.43;90.36
69009;SHT31;56065;52.472;13.380;2024-01-15T00:14:23;3.42;90.42
69009;SHT31;56065;52.472;13.380;2024-01-15T00:16:48;3.37;90.60
69009;SHT31;56065;52.472;13.380;2024-01-15T00:19:16;3.35;90.38
69009;SHT31;56065;52.472;13.380;2024-01-15T00:21:42;3.30;90.63
69009;SHT31;56065;52.472;13.380;2024-01-15T00:24:07;3.32;90.64
69009;SHT31;56065;52.472;13.380;2024-01-15T00:26:33;3.36;90.48
69009;SHT31;56065;52.472;13.380;2024-01-15T00:28:58;3.42;90.14
69009;SHT31;56065;52.472;13.380;2024-01-15T00:31:23;3.42;90.06
69009;SHT31;56065;52.472;13.380;2024-01-15T00:33:49;3.39;89.74
69009;SHT31;56065;52.472;13.380;2024-01-15T00:36:14;3.44;89.88
69009;SHT31;56065;52.472;13.380;2024-01-15T00:38:40;3.42;89.60
69009;SHT31;56065;52.472;13.380;2024-01-15T00:41:05;3.44;89.48
69009;SHT31;56065;52.472;13.380;2024-01-15T00:43:31;3.43;89.09
69009;SHT31;56065;52.472;13.380;2024-01-15T00:45:56;3.49;89.00
69009;SHT31;56065;52.472;13.380;2024-01-15T00:48:21;3.55;89.10
69009;SHT31;56065;52.472;13.380;2024-01-15T00:50:47;3.55;88.94
69009;SHT31;56065;52.472;13.380;2024-01-15T00:53:12;3.55;88.77
69009;SHT31;56065;52.472;13.380;2024-01-15T00:55:37;3.52;88.91
69009;SHT31;56065;52.472;13.380;2024-01-15T00:58:03;3.55;89.17
69009;SHT31;56065;52.472;13.380;2024-01-15T01:00:29;3.52;88.70
69009;SHT31;56065;52.472;13.380;2024-01-15T01:02:54;3.57;88.67
69009;SHT31;56065;52.472;13.380;2024-01-15T01:05:19;3.46;88.93
69009;SHT31;56065;52.472;13.380;2024-01-15T01:07:45;3.39;89.38
69009;SHT31;56065;52.472;13.380;2024-01-15T01:10:10;3.36;89.19
69009;SHT31;56065;52.472;13.380;2024-01-15T01:12:36;3.40;89.55
69009;SHT31;56065;52.472;13.380;2024-01-15T01:15:01;3.42;89.59
69009;SHT31;56065;52.472;13.380;2024-01-15T01:17:27;3.35;89.58
69009;SHT31;56065;52.472;13.380;2024-01-15T01:19:53;3.36;89.88
69009;SHT31;56065;52.472;13.380;2024-01-15T01:22:18;3.36;90.21
69009;SHT31;56065;52.472;13.380;2024-01-15T01:24:43;3.37;90.14
69009;SHT31;56065;52.472;13.380;2024-01-15T01:27:09;3.30;90.28
69009;SHT31;56065;52.472;13.380;2024-01-15T01:29:35;3.39;90.17
69009;SHT31;56065;52.472;13.380;2024-01-15T01:32:00;3.39;90.27
69009;SHT31;56065;52.472;13.380;2024-01-15T01:34:25;3.43;90.31
69009;SHT31;56065;52.472;13.380;2024-01-15T01:36:51;3.32;90.39
69009;SHT31;56065;52.472;13.380;2024-01-15T01:39:16;3.37;90.60
69009;SHT31;56065;52.472;13.380;2024-01-15T01:41:42;3.39;90.93
69009;SHT31;56065;52.472;13.380;2024-01-15T01:44:07;3.39;91.06
69009;SHT31;56065;52.472;13.380;2024-01-15T01:46:34;3.40;91.14
69009;SHT31;56065;52.472;13.380;2024-01-15T01:49:04;3.42;91.19
69009;SHT31;56065;52.472;13.380;2024-01-15T01:51:31;3.42;91.10
69009;SHT31;56065;52.472;13.380;2024-01-15T01:53:58;3.32;91.32
69009;SHT31;56065;52.472;13.380;2024-01-15T01:56:23;3.36;90.83
69009;SHT31;56065;52.472;13.380;2024-01-15T01:58:49;3.29;90.81
69009;SHT31;56065;52.472;13.380;2024-01-15T02:01:15;3.23;91.03
69009;SHT31;56065;52.472;13.380;2024-01-15T02:03:41;3.25;90.93
69009;SHT31;56065;52.472;13.380;2024-01-15T02:06:07;3.27;90.88
69009;SHT31;56065;52.472;13.380;2024-01-15T02:08:34;3.26;90.76
69009;SHT31;56065;52.472;13.380;2024-01-15T02:11:00;3.19;90.66
69009;SHT31;56065;52.472;13.380;2024-01-15T02:13:25;3.20;90.58
69009;SHT31;56065;52.472;13.380;2024-01-15T02:15:54;3.13;90.46
69009;SHT31;56065;52.472;13.380;2024-01-15T02:18:19;3.09;90.34
69009;SHT31;56065;52.472;13.380;2024-01-15T02:20:49;3.08;90.31
69009;SHT31;56065;52.472;13.380;2024-01-15T02:23:15;3.13;90.53
69009;SHT31;56065;52.472;13.380;2024-01-15T02:25:43;3.16;90.00
69009;SHT31;56065;52.472;13.380;2024-01-15T02:28:12;3.16;89.93
69009;SHT31;56065;52.472;13.380;2024-01-15T02:30:38;3.12;89.72
69009;SHT31;56065;52.472;13.380;2024-01-15T02:33:04;3.12;89.61
69009;SHT31;56065;52.472;13.380;2024-01-15T02:35:30;3.06;89.56
69009;SHT31;56065;52.472;13.380;2024-01-15T02:37:55;3.04;89.15
69009;SHT31;56065;52.472;13.380;2024-01-15T02:40:21;2.98;89.29
69009;SHT31;56065;52.472;13.380;2024-01-15T02:42:46;2.95;89.53
69009;SHT31;56065;52.472;13.380;2024-01-15T02:45:11;2.99;89.35
69009;SHT31;56065;52.472;13.380;2024-01-15T02:47:37;3.02;89.27
69009;SHT31;56065;52.472;13.380;2024-01-15T02:50:02;3.09;89.05
69009;SHT31;56065;52.472;13.380;2024-01-15T02:52:28;2.99;88.76
69009;SHT31;56065;52.472;13.380;2024-01-15T02:54:53;3.01;88.80
69009;SHT31;56065;52.472;13.380;2024-01-15T02:57:18;3.04;88.88
69009;SHT31;56065;52.472;13.380;2024-01-15T02:59:44;2.99;88.79
69009;SHT31;56065;52.472;13.380;2024-01-15T03:02:10;3.05;88.99
69009;SHT31;56065;52.472;13.380;2024-01-15T03:04:36;3.01;89.05
69009;SHT31;56065;52.472;13.380;2024-01-15T03:07:01;3.01;88.74
69009;SHT31;56065;52.472;13.380;2024-01-15T03:09:26;3.04;88.71
69009;SHT31;56065;52.472;13.380;2024-01-15T03:11:52;3.08;88.60
69009;SHT31;56065;52.472;13.380;2024-01-15T03:14:17;3.15;88.56
69009;SHT31;56065;52.472;13.380;2024-01-15T03:16:42;3.19;88.39
69009;SHT31;56065;52.472;13.380;2024-01-15T03:19:08;3.13;88.11
69009;SHT31;56065;52.472;13.380;2024-01-15T03:21:33;3.15;88.20
69009;SHT31;56065;52.472;13.380;2024-01-15T03:23:58;3.18;87.94
69009;SHT31;56065;52.472;13.380;2024-01-15T03:26:24;3.12;87.66
69009;SHT31;56065;52.472;13.380;2024-01-15T03:28:49;3.12;87.66
69009;SHT31;56065;52.472;13.380;2024-01-15T03:31:14;3.19;87.58
69009;SHT31;56065;52.472;13.380;2024-01-15T03:33:40;3.16;87.43
69009;SHT31;56065;52.472;13.380;2024-01-15T03:36:05;3.20;87.58
69009;SHT31;56065;52.472;13.380;2024-01-15T03:38:31;3.18;87.51
69009;SHT31;56065;52.472;13.380;2024-01-15T03:40:56;3.15;87.50
69009;SHT31;56065;52.472;13.380;2024-01-15T03:43:21;3.19;87.43
69009;SHT31;56065;52.472;13.380;2024-01-15T03:45:47;3.23;87.39
69009;SHT31;56065;52.472;13.380;2024-01-15T03:48:12;3.26;87.31
69009;SHT31;56065;52.472;13.380;2024-01-15T03:50:38;3.22;87.28
69009;SHT31;56065;52.472;13.380;2024-01-15T03:53:03;3.23;87.28
69009;SHT31;56065;52.472;13.380;2024-01-15T03:55:28;3.26;87.01
69009;SHT31;56065;52.472;13.380;2024-01-15T03:57:54;3.25;86.70
69009;SHT31;56065;52.472;13.380;2024-01-15T04:00:19;3.26;86.68
69009;SHT31;56065;52.472;13.380;2024-01-15T04:02:44;3.30;86.69
69009;SHT31;56065;52.472;13.380;2024-01-15T04:05:10;3.37;86.34
69009;SHT31;56065;52.472;13.380;2024-01-15T04:07:35;3.29;86.62
69009;SHT31;56065;52.472;13.380;2024-01-15T04:10:01;3.32;87.00
69009;SHT31;56065;52.472;13.380;2024-01-15T04:12:26;3.29;86.88
69009;SHT31;56065;52.472;13.380;2024-01-15T04:14:52;3.25;86.59
69009;SHT31;56065;52.472;13.380;2024-01-15T04:17:17;3.13;86.47
69009;SHT31;56065;52.472;13.380;2024-01-15T04:19:46;3.13;86.75
69009;SHT31;56065;52.472;13.380;2024-01-15T04:22:21;3.11;86.68
69009;SHT31;56065;52.472;13.380;2024-01-15T04:24:47;3.04;86.97
69009;SHT31;56065;52.472;13.380;2024-01-15T04:27:16;3.08;86.82
69009;SHT31;56065;52.472;13.380;2024-01-15T04:29:41;3.09;86.81
69009;SHT31;56065;52.472;13.380;2024-01-15T04:32:06;3.05;86.60
69009;SHT31;56065;52.472;13.380;2024-01-15T04:34:32;3.12;86.70
69009;SHT31;56065;52.472;13.380;2024-01-15T04:36:57;3.12;86.59
69009;SHT31;56065;52.472;13.380;2024-01-15T04:39:22;3.12;86.27
69009;SHT31;56065;52.472;13.380;2024-01-15T04:41:48;3.12;86.20
69009;SHT31;56065;52.472;13.380;2024-01-15T04:44:13;3.11;86.19
69009;SHT31;56065;52.472;13.380;2024-01-15T04:46:38;3.13;86.08
69009;SHT31;56065;52.472;13.380;2024-01-15T04:49:04;3.09;85.85
69009;SHT31;56065;52.472;13.380;2024-01-15T04:51:30;3.08;86.05
69009;SHT31;56065;52.472;13.380;2024-01-15T04:53:58;3.02;85.96
69009;SHT31;56065;52.472;13.380;2024-01-15T04:56:23;3.04;85.91
69009;SHT31;56065;52.472;13.380;2024-01-15T04:58:49;2.98;85.97
69009;SHT31;56065;52.472;13.380;2024-01-15T05:01:16;2.99;86.20
69009;SHT31;56065;52.472;13.380;2024-01-15T05:03:42;3.04;86.14
69009;SHT31;56065;52.472;13.380;2024-01-15T05:06:07;3.12;86.24
69009;SHT31;56065;52.472;13.380;2024-01-15T05:08:32;3.18;85.79
69009;SHT31;56065;52.472;13.380;2024-01-15T05:10:58;3.20;85.67
69009;SHT31;56065;52.472;13.380;2024-01-15T05:13:23;3.20;85.98
69009;SHT31;56065;52.472;13.380;2024-01-15T05:15:48;3.20;86.32
69009;SHT31;56065;52.472;13.380;2024-01-15T05:18:14;3.18;86.67
69009;SHT31;56065;52.472;13.380;2024-01-15T05:20:39;3.25;86.97
69009;SHT31;56065;52.472;13.380;2024-01-15T05:23:05;3.22;86.83
69009;SHT31;56065;52.472;13.380;2024-01-15T05:25:30;3.26;86.81
69009;SHT31;56065;52.472;13.380;2024-01-15T05:27:55;3.23;86.43
69009;SHT31;56065;52.472;13.380;2024-01-15T05:30:21;3.35;86.44
69009;SHT31;56065;52.472;13.380;2024-01-15T05:32:46;3.36;86.26
69009;SHT31;56065;52.472;13.380;2024-01-15T05:35:12;3.33;86.06
69009;SHT31;56065;52.472;13.380;2024-01-15T05:37:39;3.36;86.09
69009;SHT31;56065;52.472;13.380;2024-01-15T05:40:05;3.36;85.74
69009;SHT31;56065;52.472;13.380;2024-01-15T05:42:30;3.40;85.71
69009;SHT31;56065;52.472;13.380;2024-01-15T05:44:57;3.37;85.60
69009;SHT31;56065;52.472;13.380;2024-01-15T05:47:24;3.40;85.93
69009;SHT31;56065;52.472;13.380;2024-01-15T05:49:52;3.39;85.94
69009;SHT31;56065;52.472;13.380;2024-01-15T05:52:18;3.39;85.94
69009;SHT31;56065;52.472;13.380;2024-01-15T05:54:46;3.44;85.97
69009;SHT31;56065;52.472;13.380;2024-01-15T05:57:12;3.50;86.12
69009;SHT31;56065;52.472;13.380;2024-01-15T05:59:38;3.42;86.78
69009;SHT31;56065;52.472;13.380;2024-01-15T06:02:03;3.40;87.55
69009;SHT31;56065;52.472;13.380;2024-01-15T06:04:29;3.29;87.77
69009;SHT31;56065;52.472;13.380;2024-01-15T06:06:54;3.30;87.60
69009;SHT31;56065;52.472;13.380;2024-01-15T06:09:19;3.29;87.77
69009;SHT31;56065;52.472;13.380;2024-01-15T06:11:45;3.32;87.82
69009;SHT31;56065;52.472;13.380;2024-01-15T06:14:10;3.33;87.54
69009;SHT31;56065;52.472;13.380;2024-01-15T06:16:36;3.39;87.33
69009;SHT31;56065;52.472;13.380;2024-01-15T06:19:01;3.33;87.23
69009;SHT31;56065;52.472;13.380;2024-01-15T06:21:26;3.35;86.90
69009;SHT31;56065;52.472;13.380;2024-01-15T06:23:52;3.26;86.86
69009;SHT31;56065;52.472;13.380;2024-01-15T06:26:17;3.27;87.13
69009;SHT31;56065;52.472;13.380;2024-01-15T06:28:43;3.25;87.24
69009;SHT31;56065;52.472;13.380;2024-01-15T06:31:11;3.32;87.50
69009;SHT31;56065;52.472;13.380;2024-01-15T06:33:37;3.33;87.82
69009;SHT31;56065;52.472;13.380;2024-01-15T06:36:03;3.29;87.80
69009;SHT31;56065;52.472;13.380;2024-01-15T06:38:28;3.30;87.97
69009;SHT31;56065;52.472;13.380;2024-01-15T06:40:54;3.23;87.91
69009;SHT31;56065;52.472;13.380;2024-01-15T06:43:19;3.22;88.07
69009;SHT31;56065;52.472;13.380;2024-01-15T06:45:44;3.27;87.95
69009;SHT31;56065;52.472;13.380;2024-01-15T06:48:10;3.33;87.67
69009;SHT31;56065;52.472;13.380;2024-01-15T06:50:37;3.35;87.70
69009;SHT31;56065;52.472;13.380;2024-01-15T06:53:03;3.33;87.52
69009;SHT31;56065;52.472;13.380;2024-01-15T06:55:28;3.33;87.23
69009;SHT31;56065;52.472;13.380;2024-01-15T06:57:54;3.35;87.00
69009;SHT31;56065;52.472;13.380;2024-01-15T07:00:19;3.46;87.01
69009;SHT31;56065;52.472;13.380;2024-01-15T07:02:45;3.37;86.70
69009;SHT31;56065;52.472;13.380;2024-01-15T07:05:11;3.40;86.80
69009;SHT31;56065;52.472;13.380;2024-01-15T07:07:37;3.40;86.40
69009;SHT31;56065;52.472;13.380;2024-01-15T07:10:03;3.39;86.21
69009;SHT31;56065;52.472;13.380;2024-01-15T07:12:29;3.42;85.95
69009;SHT31;56065;52.472;13.380;2024-01-15T07:14:58;3.59;85.76
69009;SHT31;56065;52.472;13.380;2024-01-15T07:17:23;3.55;85.75
69009;SHT31;56065;52.472;13.380;2024-01-15T07:19:49;3.52;85.63
69009;SHT31;56065;52.472;13.380;2024-01-15T07:22:14;3.56;85.64
69009;SHT31;56065;52.472;13.380;2024-01-15T07:24:42;3.53;85.14
69009;SHT31;56065;52.472;13.380;2024-01-15T07:27:08;3.57;85.03
69009;SHT31;56065;52.472;13.380;2024-01-15T07:29:34;3.59;85.11
69009;SHT31;56065;52.472;13.380;2024-01-15T07:32:01;3.67;85.29
69009;SHT31;56065;52.472;13.380;2024-01-15T07:34:26;3.69;85.11
69009;SHT31;56065;52.472;13.380;2024-01-15T07:36:52;3.63;84.73
69009;SHT31;56065;52.472;13.380;2024-01-15T07:39:17;3.74;84.79
69009;SHT31;56065;52.472;13.380;2024-01-15T07:41:42;3.77;84.82
69009;SHT31;56065;52.472;13.380;2024-01-15T07:44:08;3.77;84.49
69009;SHT31;56065;52.472;13.380;2024-01-15T07:46:33;3.80;84.46
69009;SHT31;56065;52.472;13.380;2024-01-15T07:48:58;3.80;84.30
69009;SHT31;56065;52.472;13.380;2024-01-15T07:51:24;3.80;84.50
69009;SHT31;56065;52.472;13.380;2024-01-15T07:53:53;3.78;84.36
69009;SHT31;56065;52.472;13.380;2024-01-15T07:56:18;3.83;84.56
69009;SHT31;56065;52.472;13.380;2024-01-15T07:58:44;3.86;84.60
69009;SHT31;56065;52.472;13.380;2024-01-15T08:01:09;3.90;84.76
69009;SHT31;56065;52.472;13.380;2024-01-15T08:03:35;3.91;84.62
69009;SHT31;56065;52.472;13.380;2024-01-15T08:06:00;4.04;84.33
69009;SHT31;56065;52.472;13.380;2024-01-15T08:08:25;3.98;84.14
69009;SHT31;56065;52.472;13.380;2024-01-15T08:10:54;4.01;84.26
69009;SHT31;56065;52.472;13.380;2024-01-15T08:13:19;3.98;84.30
69009;SHT31;56065;52.472;13.380;2024-01-15T08:15:45;3.98;84.15
69009;SHT31;56065;52.472;13.380;2024-01-15T08:18:11;3.93;83.90
69009;SHT31;56065;52.472;13.380;2024-01-15T08:20:36;3.84;84.26
69009;SHT31;56065;52.472;13.380;2024-01-15T08:23:02;3.87;84.39
69009;SHT31;56065;52.472;13.380;2024-01-15T08:25:27;3.98;84.34
69009;SHT31;56065;52.472;13.380;2024-01-15T08:27:53;3.99;84.27
69009;SHT31;56065;52.472;13.380;2024-01-15T08:30:18;4.21;84.05
69009;SHT31;56065;52.472;13.380;2024-01-15T08:32:44;4.21;83.62
69009;SHT31;56065;52.472;13.380;2024-01-15T08:35:10;4.21;83.72
69009;SHT31;56065;52.472;13.380;2024-01-15T08:37:36;4.31;83.80
69009;SHT31;56065;52.472;13.380;2024-01-15T08:40:02;4.36;83.43
69009;SHT31;56065;52.472;13.380;2024-01-15T08:42:29;4.36;83.33
69009;SHT31;56065;52.472;13.380;2024-01-15T08:44:54;4.27;82.73
69009;SHT31;56065;52.472;13.380;2024-01-15T08:47:19;4.38;82.87
69009;SHT31;56065;52.472;13.380;2024-01-15T08:49:45;4.31;83.04
69009;SHT31;56065;52.472;13.380;2024-01-15T08:52:11;4.31;82.92
69009;SHT31;56065;52.472;13.380;2024-01-15T08:54:37;4.32;82.78
69009;SHT31;56065;52.472;13.380;2024-01-15T08:57:02;4.29;83.10
69009;SHT31;56065;52.472;13.380;2024-01-15T08:59:28;4.31;82.97
69009;SHT31;56065;52.472;13.380;2024-01-15T09:01:53;4.24;83.19
69009;SHT31;56065;52.472;13.380;2024-01-15T09:04:19;4.25;83.48
69009;SHT31;56065;52.472;13.380;2024-01-15T09:06:45;4.19;83.37
69009;SHT31;56065;52.472;13.380;2024-01-15T09:09:12;4.19;83.65
69009;SHT31;56065;52.472;13.380;2024-01-15T09:11:39;4.22;83.86
69009;SHT31;56065;52.472;13.380;2024-01-15T09:14:04;4.15;83.58
69009;SHT31;56065;52.472;13.380;2024-01-15T09:16:29;4.17;83.85
69009;SHT31;56065;52.472;13.380;2024-01-15T09:18:55;4.14;83.87
69009;SHT31;56065;52.472;13.380;2024-01-15T09:21:22;4.22;83.69
69009;SHT31;56065;52.472;13.380;2024-01-15T09:23:48;4.24;83.98
69009;SHT31;56065;52.472;13.380;2024-01-15T09:26:13;4.28;83.97
69009;SHT31;56065;52.472;13.380;2024-01-15T09:28:39;4.24;83.84
69009;SHT31;56065;52.472;13.380;2024-01-15T09:31:04;4.25;83.81
69009;SHT31;56065;52.472;13.380;2024-01-15T09:33:30;4.32;84.12
69009;SHT31;56065;52.472;13.380;2024-01-15T09:35:55;4.45;83.94
69009;SHT31;56065;52.472;13.380;2024-01-15T09:38:20;4.38;83.53
69009;SHT31;56065;52.472;13.380;2024-01-15T09:40:46;4.38;83.56
69009;SHT31;56065;52.472;13.380;2024-01-15T09:43:12;4.39;83.50
69009;SHT31;56065;52.472;13.380;2024-01-15T09:45:39;4.29;83.54
69009;SHT31;56065;52.472;13.380;2024-01-15T09:48:05;4.44;83.75
69009;SHT31;56065;52.472;13.380;2024-01-15T09:50:31;4.48;83.58
69009;SHT31;56065;52.472;13.380;2024-01-15T09:52:57;4.58;83.47
69009;SHT31;56065;52.472;13.380;2024-01-15T09:55:23;4.69;83.08
69009;SHT31;56065;52.472;13.380;2024-01-15T09:57:49;4.73;82.87
69009;SHT31;56065;52.472;13.380;2024-01-15T10:00:17;4.84;82.80
69009;SHT31;56065;52.472;13.380;2024-01-15T10:02:43;4.93;82.99
69009;SHT31;56065;52.472;13.380;2024-01-15T10:05:09;4.83;82.69
69009;SHT31;56065;52.472;13.380;2024-01-15T10:07:35;4.91;82.68
69009;SHT31;56065;52.472;13.380;2024-01-15T10:10:02;4.94;82.49
69009;SHT31;56065;52.472;13.380;2024-01-15T10:12:28;5.01;82.33
69009;SHT31;56065;52.472;13.380;2024-01-15T10:14:56;5.00;82.31
69009;SHT31;56065;52.472;13.380;2024-01-15T10:17:21;5.16;81.97
69009;SHT31;56065;52.472;13.380;2024-01-15T10:19:46;5.14;82.01
69009;SHT31;56065;52.472;13.380;2024-01-15T10:22:13;5.10;81.86
69009;SHT31;56065;52.472;13.380;2024-01-15T10:24:40;5.10;82.07
69009;SHT31;56065;52.472;13.380;2024-01-15T10:27:09;5.14;82.03
69009;SHT31;56065;52.472;13.380;2024-01-15T10:29:35;5.13;82.08
69009;SHT31;56065;52.472;13.380;2024-01-15T10:32:11;5.14;81.88
69009;SHT31;56065;52.472;13.380;2024-01-15T10:34:42;5.08;82.14
69009;SHT31;56065;52.472;13.380;2024-01-15T10:37:08;5.20;81.61
69009;SHT31;56065;52.472;13.380;2024-01-15T10:39:34;5.28;81.55
69009;SHT31;56065;52.472;13.380;2024-01-15T10:42:00;5.17;81.14
69009;SHT31;56065;52.472;13.380;2024-01-15T10:44:25;5.11;81.61
69009;SHT31;56065;52.472;13.380;2024-01-15T10:46:51;5.04;81.65
69009;SHT31;56065;52.472;13.380;2024-01-15T10:49:16;5.08;81.49
69009;SHT31;56065;52.472;13.380;2024-01-15T10:51:44;5.17;81.65
69009;SHT31;56065;52.472;13.380;2024-01-15T10:54:10;5.27;81.10
69009;SHT31;56065;52.472;13.380;2024-01-15T10:56:37;5.52;80.51
69009;SHT31;56065;52.472;13.380;2024-01-15T10:59:03;5.85;80.03
69009;SHT31;56065;52.472;13.380;2024-01-15T11:01:30;5.63;79.54
69009;SHT31;56065;52.472;13.380;2024-01-15T11:03:56;5.75;79.87
69009;SHT31;56065;52.472;13.380;2024-01-15T11:06:27;5.85;79.97
69009;SHT31;56065;52.472;13.380;2024-01-15T11:08:54;5.79;79.66
69009;SHT31;56065;52.472;13.380;2024-01-15T11:11:21;6.07;79.30
69009;SHT31;56065;52.472;13.380;2024-01-15T11:13:47;6.44;78.72
69009;SHT31;56065;52.472;13.380;2024-01-15T11:16:15;6.27;78.17
69009;SHT31;56065;52.472;13.380;2024-01-15T11:21:22;5.79;79.17
69009;SHT31;56065;52.472;13.380;2024-01-15T11:23:59;5.82;79.77
69009;SHT31;56065;52.472;13.380;2024-01-15T11:29:10;5.65;80.60
69009;SHT31;56065;52.472;13.380;2024-01-15T11:34:57;5.30;81.23
69009;SHT31;56065;52.472;13.380;2024-01-15T11:37:24;5.42;81.54
69009;SHT31;56065;52.472;13.380;2024-01-15T11:39:54;5.38;81.63
69009;SHT31;56065;52.472;13.380;2024-01-15T11:42:22;5.41;81.87
69009;SHT31;56065;52.472;13.380;2024-01-15T11:44:48;5.39;82.21
69009;SHT31;56065;52.472;13.380;2024-01-15T11:47:14;5.47;82.29
69009;SHT31;56065;52.472;13.380;2024-01-15T11:50:01;5.08;82.68
69009;SHT31;56065;52.472;13.380;2024-01-15T11:52:37;5.07;83.30
69009;SHT31;56065;52.472;13.380;2024-01-15T11:58:08;5.01;83.16
69009;SHT31;56065;52.472;13.380;2024-01-15T12:00:34;5.04;83.31
69009;SHT31;56065;52.472;13.380;2024-01-15T12:02:59;4.91;83.49
69009;SHT31;56065;52.472;13.380;2024-01-15T12:05:27;4.83;83.72
69009;SHT31;56065;52.472;13.380;2024-01-15T12:07:52;4.80;83.84
69009;SHT31;56065;52.472;13.380;2024-01-15T12:10:19;4.81;83.77
69009;SHT31;56065;52.472;13.380;2024-01-15T12:13:04;4.65;83.59
69009;SHT31;56065;52.472;13.380;2024-01-15T12:15:31;4.83;83.87
69009;SHT31;56065;52.472;13.380;2024-01-15T12:18:00;4.94;84.05
69009;SHT31;56065;52.472;13.380;2024-01-15T12:20:28;4.89;83.65
69009;SHT31;56065;52.472;13.380;2024-01-15T12:22:54;4.87;84.19
69009;SHT31;56065;52.472;13.380;2024-01-15T12:25:23;4.86;84.50
69009;SHT31;56065;52.472;13.380;2024-01-15T12:27:49;4.87;83.83
69009;SHT31;56065;52.472;13.380;2024-01-15T12:30:14;4.83;83.84
69009;SHT31;56065;52.472;13.380;2024-01-15T12:32:43;4.73;83.76
69009;SHT31;56065;52.472;13.380;2024-01-15T12:35:10;4.79;83.86
69009;SHT31;56065;52.472;13.380;2024-01-15T12:37:36;4.73;83.93
69009;SHT31;56065;52.472;13.380;2024-01-15T12:40:03;4.67;84.11
69009;SHT31;56065;52.472;13.380;2024-01-15T12:42:30;4.70;84.17
69009;SHT31;56065;52.472;13.380;2024-01-15T12:44:56;4.72;84.06
69009;SHT31;56065;52.472;13.380;2024-01-15T12:47:22;4.77;84.59
69009;SHT31;56065;52.472;13.380;2024-01-15T12:49:47;4.80;85.18
69009;SHT31;56065;52.472;13.380;2024-01-15T12:52:15;4.79;85.57
69009;SHT31;56065;52.472;13.380;2024-01-15T12:54:41;4.59;85.70
69009;SHT31;56065;52.472;13.380;2024-01-15T12:57:06;4.69;85.53
69009;SHT31;56065;52.472;13.380;2024-01-15T12:59:31;4.70;85.93
69009;SHT31;56065;52.472;13.380;2024-01-15T13:01:57;4.75;86.11
69009;SHT31;56065;52.472;13.380;2024-01-15T13:04:23;4.81;86.03
69009;SHT31;56065;52.472;13.380;2024-01-15T13:06:49;4.97;85.66
69009;SHT31;56065;52.472;13.380;2024-01-15T13:09:15;4.96;85.14
69009;SHT31;56065;52.472;13.380;2024-01-15T13:11:40;4.94;85.19
69009;SHT31;56065;52.472;13.380;2024-01-15T13:14:06;5.06;84.79
69009;SHT31;56065;52.472;13.380;2024-01-15T13:16:32;4.89;85.02
69009;SHT31;56065;52.472;13.380;2024-01-15T13:18:57;5.03;84.92
69009;SHT31;56065;52.472;13.380;2024-01-15T13:21:24;4.94;85.12
69009;SHT31;56065;52.472;13.380;2024-01-15T13:23:49;4.98;84.99
69009;SHT31;56065;52.472;13.380;2024-01-15T13:26:15;4.93;84.69
69009;SHT31;56065;52.472;13.380;2024-01-15T13:28:40;5.00;84.41
69009;SHT31;56065;52.472;13.380;2024-01-15T13:31:05;5.01;84.46
69009;SHT31;56065;52.472;13.380;2024-01-15T13:33:31;5.06;84.14
69009;SHT31;56065;52.472;13.380;2024-01-15T13:35:56;4.98;84.27
69009;SHT31;56065;52.472;13.380;2024-01-15T13:38:21;4.83;84.14
69009;SHT31;56065;52.472;13.380;2024-01-15T13:40:47;4.90;84.56
69009;SHT31;56065;52.472;13.380;2024-01-15T13:43:12;4.83;84.89
69009;SHT31;56065;52.472;13.380;2024-01-15T13:45:41;4.70;84.98
69009;SHT31;56065;52.472;13.380;2024-01-15T13:48:06;4.66;85.31
69009;SHT31;56065;52.472;13.380;2024-01-15T13:50:33;4.62;85.12
69009;SHT31;56065;52.472;13.380;2024-01-15T13:52:59;4.58;85.42
69009;SHT31;56065;52.472;13.380;2024-01-15T13:55:24;4.36;85.92
69009;SHT31;56065;52.472;13.380;2024-01-15T13:57:50;4.39;85.34
69009;SHT31;56065;52.472;13.380;2024-01-15T14:00:15;4.42;85.28
69009;SHT31;56065;52.472;13.380;2024-01-15T14:02:44;4.48;85.43
69009;SHT31;56065;52.472;13.380;2024-01-15T14:05:09;4.36;85.47
69009;SHT31;56065;52.472;13.380;2024-01-15T14:07:40;4.48;85.78
69009;SHT31;56065;52.472;13.380;2024-01-15T14:10:07;4.34;86.05
69009;SHT31;56065;52.472;13.380;2024-01-15T14:12:33;4.36;85.92
69009;SHT31;56065;52.472;13.380;2024-01-15T14:14:59;4.48;85.72
69009;SHT31;56065;52.472;13.380;2024-01-15T14:17:26;4.44;85.64
69009;SHT31;56065;52.472;13.380;2024-01-15T14:19:51;4.34;85.63
69009;SHT31;56065;52.472;13.380;2024-01-15T14:22:16;4.31;85.85
69009;SHT31;56065;52.472;13.380;2024-01-15T14:24:42;4.32;85.58
69009;SHT31;56065;52.472;13.380;2024-01-15T14:27:07;4.35;85.18
69009;SHT31;56065;52.472;13.380;2024-01-15T14:29:33;4.24;85.55
69009;SHT31;56065;52.472;13.380;2024-01-15T14:31:58;4.29;85.34
69009;SHT31;56065;52.472;13.380;2024-01-15T14:34:25;4.36;85.62
69009;SHT31;56065;52.472;13.380;2024-01-15T14:36:50;4.46;85.33
69009;SHT31;56065;52.472;13.380;2024-01-15T14:39:18;4.46;85.27
69009;SHT31;56065;52.472;13.380;2024-01-15T14:41:44;4.32;85.53
69009;SHT31;56065;52.472;13.380;2024-01-15T14:44:10;4.32;85.75
69009;SHT31;56065;52.472;13.380;2024-01-15T14:46:37;4.35;85.10
69009;SHT31;56065;52.472;13.380;2024-01-15T14:49:02;4.24;85.01
69009;SHT31;56065;52.472;13.380;2024-01-15T14:51:28;4.28;84.80
69009;SHT31;56065;52.472;13.380;2024-01-15T14:53:53;4.35;84.89
69009;SHT31;56065;52.472;13.380;2024-01-15T14:56:18;4.31;85.07
69009;SHT31;56065;52.472;13.380;2024-01-15T14:58:44;4.21;85.55
69009;SHT31;56065;52.472;13.380;2024-01-15T15:01:09;4.12;85.30
69009;SHT31;56065;52.472;13.380;2024-01-15T15:03:35;4.21;85.17
69009;SHT31;56065;52.472;13.380;2024-01-15T15:06:00;4.17;85.01
69009;SHT31;56065;52.472;13.380;2024-01-15T15:08:26;4.12;84.95
69009;SHT31;56065;52.472;13.380;2024-01-15T15:10:52;4.14;85.21
69009;SHT31;56065;52.472;13.380;2024-01-15T15:13:17;4.18;84.90
69009;SHT31;56065;52.472;13.380;2024-01-15T15:15:42;4.21;84.67
69009;SHT31;56065;52.472;13.380;2024-01-15T15:18:08;4.27;84.99
69009;SHT31;56065;52.472;13.380;2024-01-15T15:20:33;4.29;84.86
69009;SHT31;56065;52.472;13.380;2024-01-15T15:22:58;4.27;84.77
69009;SHT31;56065;52.472;13.380;2024-01-15T15:25:24;4.28;84.59
69009;SHT31;56065;52.472;13.380;2024-01-15T15:27:49;4.21;84.90
69009;SHT31;56065;52.472;13.380;2024-01-15T15:30:15;4.15;85.19
69009;SHT31;56065;52.472;13.380;2024-01-15T15:32:40;4.29;84.74
69009;SHT31;56065;52.472;13.380;2024-01-15T15:35:05;4.28;85.15